Time;durP1;ratioP1;P1;durP2;ratioP2;P2;SDS_P1;SDS_P2;PMS_P1;PMS_P2;Temp;Humidity;BMP_temperature;BMP_pressure;BME280_temperature;BME280_humidity;BME280_pressure;Samples;Min_cycle;Max_cycle;Signal;HPM_P1;HPM_P2
2022/07/14 00:00:55;;;;;;;0.70;0.10;;;26.90;99.90;;;;;;4938853;29;20969;-72
2022/07/14 00:03:25;;;;;;;0.70;0.10;;;26.90;99.90;;;;;;4934249;29;20463;-72
2022/07/14 00:05:53;;;;;;;0.70;0.20;;;26.90;99.90;;;;;;4934811;29;20494;-72
2022/07/14 00:08:21;;;;;;;0.70;0.20;;;26.90;99.90;;;;;;4934190;29;20819;-72
2022/07/14 00:10:48;;;;;;;0.70;0.20;;;26.90;99.90;;;;;;4932447;29;20462;-72
2022/07/14 00:13:16;;;;;;;0.70;0.10;;;26.80;99.90;;;;;;4926439;29;20472;-72
2022/07/14 00:15:45;;;;;;;0.70;0.20;;;;;;;;;;4935150;29;20785;-72
2022/07/14 00:18:13;;;;;;;0.70;0.20;;;26.80;99.90;;;;;;4934051;29;20458;-73
2022/07/14 00:20:42;;;;;;;0.70;0.20;;;26.80;99.90;;;;;;4934693;29;20535;-72
2022/07/14 00:23:10;;;;;;;0.70;0.10;;;26.80;99.90;;;;;;4934932;29;20472;-71
2022/07/14 00:25:38;;;;;;;0.70;0.10;;;26.80;99.90;;;;;;4934250;29;20947;-71
2022/07/14 00:28:06;;;;;;;0.70;0.20;;;26.80;99.90;;;;;;4934490;29;20450;-71
2022/07/14 00:30:34;;;;;;;0.70;0.10;;;26.70;99.90;;;;;;4935303;29;20452;-71
2022/07/14 00:33:02;;;;;;;0.70;0.10;;;26.70;99.90;;;;;;4935018;29;21031;-71
2022/07/14 00:35:31;;;;;;;0.70;0.17;;;26.70;99.90;;;;;;4934333;29;20455;-71
2022/07/14 00:38:02;;;;;;;0.70;0.20;;;26.60;99.90;;;;;;4934855;29;20480;-71
2022/07/14 00:40:30;;;;;;;0.70;0.20;;;26.60;99.90;;;;;;4935153;29;20482;-72
2022/07/14 00:42:58;;;;;;;0.70;0.10;;;26.60;99.90;;;;;;4938238;29;20657;-72
2022/07/14 00:45:27;;;;;;;0.70;0.20;;;26.60;99.90;;;;;;4935883;29;20455;-72
2022/07/14 00:47:55;;;;;;;0.70;0.20;;;26.60;99.90;;;;;;4918834;29;21066;-72
2022/07/14 00:50:23;;;;;;;0.70;0.20;;;26.60;99.90;;;;;;4919985;29;20456;-71
2022/07/14 00:52:51;;;;;;;0.70;0.20;;;26.60;99.90;;;;;;4919488;29;20524;-71
2022/07/14 00:55:20;;;;;;;0.70;0.20;;;26.60;99.90;;;;;;4936857;29;20455;-71
2022/07/14 00:57:50;;;;;;;0.70;0.10;;;26.60;99.90;;;;;;4937808;29;20440;-71
2022/07/14 01:00:18;;;;;;;0.70;0.10;;;26.60;99.90;;;;;;4938573;29;20463;-72
2022/07/14 01:02:47;;;;;;;0.70;0.20;;;26.50;99.90;;;;;;4938150;29;20558;-71
2022/07/14 01:05:15;;;;;;;0.70;0.20;;;26.50;99.90;;;;;;4921177;29;20457;-70
2022/07/14 01:07:43;;;;;;;0.70;0.20;;;26.50;99.90;;;;;;4918778;29;20484;-70
2022/07/14 01:10:11;;;;;;;0.70;0.20;;;26.50;99.90;;;;;;4918780;29;20830;-72
2022/07/14 01:12:44;;;;;;;0.70;0.10;;;26.50;99.90;;;;;;4918848;29;20480;-71
2022/07/14 01:15:13;;;;;;;0.70;0.10;;;26.50;99.90;;;;;;4921866;29;20516;-71
2022/07/14 01:17:41;;;;;;;0.70;0.20;;;26.50;99.90;;;;;;4918562;29;20459;-71
2022/07/14 01:20:10;;;;;;;0.70;0.10;;;26.40;99.90;;;;;;4919081;29;20453;-71
2022/07/14 01:22:40;;;;;;;0.70;0.20;;;;;;;;;;4918941;29;20583;-71
2022/07/14 01:25:09;;;;;;;0.70;0.10;;;26.40;99.90;;;;;;4935920;29;20527;-71
2022/07/14 01:27:37;;;;;;;0.70;0.10;;;26.40;99.90;;;;;;4937594;29;20480;-71
2022/07/14 01:30:07;;;;;;;0.70;0.20;;;26.40;99.90;;;;;;4937770;29;20452;-71
2022/07/14 01:32:35;;;;;;;0.70;0.10;;;26.30;99.90;;;;;;4937122;29;21001;-72
2022/07/14 01:35:03;;;;;;;0.70;0.10;;;;;;;;;;4918333;29;20457;-70
2022/07/14 01:37:31;;;;;;;0.70;0.10;;;26.30;99.90;;;;;;4918071;29;20453;-70
2022/07/14 01:40:01;;;;;;;0.70;0.10;;;26.30;99.90;;;;;;4918699;29;20453;-71
2022/07/14 01:42:30;;;;;;;0.70;0.20;;;;;;;;;;4918495;29;20468;-71
2022/07/14 01:44:57;;;;;;;0.70;0.10;;;26.10;99.90;;;;;;4936539;29;20452;-71
2022/07/14 01:47:26;;;;;;;0.70;0.10;;;;;;;;;;4936799;29;20480;-71
2022/07/14 01:49:54;;;;;;;0.70;0.20;;;26.10;99.90;;;;;;4936841;29;20459;-72
2022/07/14 01:52:21;;;;;;;0.70;0.10;;;26.20;99.90;;;;;;4918853;29;20480;-71
2022/07/14 01:54:49;;;;;;;0.70;0.20;;;26.20;99.90;;;;;;4921715;29;20539;-71
2022/07/14 01:57:18;;;;;;;0.70;0.10;;;26.20;99.90;;;;;;4928865;29;20953;-71
2022/07/14 01:59:46;;;;;;;0.70;0.10;;;26.20;99.90;;;;;;4937179;29;20448;-71
2022/07/14 02:02:14;;;;;;;0.70;0.20;;;26.20;99.90;;;;;;4934765;29;20479;-71
2022/07/14 02:04:43;;;;;;;0.70;0.10;;;26.30;99.90;;;;;;4936189;29;20536;-71
2022/07/14 02:07:11;;;;;;;0.70;0.20;;;26.20;99.90;;;;;;4935490;29;20517;-72
2022/07/14 02:12:26;;;;;;;0.70;0.10;;;26.20;99.90;;;;;;4917694;29;21041;-72
2022/07/14 02:14:53;;;;;;;0.70;0.10;;;26.10;99.90;;;;;;4918095;29;20449;-72
2022/07/14 02:17:21;;;;;;;0.70;0.10;;;26.10;99.90;;;;;;4917572;29;20464;-72
2022/07/14 02:19:49;;;;;;;0.70;0.10;;;26.10;99.90;;;;;;4917747;29;20958;-71
2022/07/14 02:22:17;;;;;;;0.70;0.10;;;26.10;99.90;;;;;;4935016;29;20482;-71
2022/07/14 02:24:45;;;;;;;0.70;0.20;;;26.10;99.90;;;;;;4936643;29;20454;-72
2022/07/14 02:27:13;;;;;;;0.70;0.20;;;26.00;99.90;;;;;;4936047;29;20487;-71
2022/07/14 02:29:42;;;;;;;0.70;0.20;;;25.90;99.90;;;;;;4936735;29;20447;-73
2022/07/14 02:32:10;;;;;;;0.70;0.10;;;25.90;99.90;;;;;;4935818;29;20527;-72
2022/07/14 02:34:38;;;;;;;0.70;0.10;;;;;;;;;;4936527;29;20448;-72
2022/07/14 02:37:06;;;;;;;0.70;0.13;;;25.80;99.90;;;;;;4936600;29;20452;-72
2022/07/14 02:39:34;;;;;;;0.70;0.10;;;25.70;99.90;;;;;;4936187;29;20451;-72
2022/07/14 02:42:02;;;;;;;0.70;0.10;;;25.70;99.90;;;;;;4920605;29;20571;-72
2022/07/14 02:44:30;;;;;;;0.70;0.20;;;;;;;;;;4917271;29;20449;-71
2022/07/14 02:46:59;;;;;;;0.70;0.10;;;25.70;99.90;;;;;;4916690;29;20475;-72
2022/07/14 02:49:27;;;;;;;0.70;0.20;;;25.60;99.90;;;;;;4916970;29;20445;-72
2022/07/14 02:51:55;;;;;;;0.70;0.17;;;;;;;;;;4931333;29;20476;-71
2022/07/14 02:54:24;;;;;;;0.70;0.10;;;;;;;;;;4935761;29;20885;-71
2022/07/14 02:56:52;;;;;;;0.70;0.20;;;;;;;;;;4935974;29;21034;-70
2022/07/14 02:59:20;;;;;;;0.70;0.20;;;22.60;99.90;;;;;;4936006;29;20468;-70
2022/07/14 03:01:48;;;;;;;0.70;0.10;;;25.50;99.90;;;;;;4923820;29;20472;-71
2022/07/14 03:04:18;;;;;;;0.70;0.20;;;25.50;99.90;;;;;;4916384;29;20444;-71
2022/07/14 03:06:46;;;;;;;0.70;0.10;;;25.50;99.90;;;;;;4916456;29;20871;-71
2022/07/14 03:09:14;;;;;;;0.70;0.10;;;25.50;99.90;;;;;;4916986;29;20485;-70
2022/07/14 03:11:42;;;;;;;0.80;0.40;;;25.40;99.90;;;;;;4928778;29;20492;-70
2022/07/14 03:14:10;;;;;;;0.70;0.10;;;25.40;99.90;;;;;;4935692;29;20966;-70
2022/07/14 03:16:38;;;;;;;0.70;0.10;;;25.40;99.90;;;;;;4935528;29;20451;-70
2022/07/14 03:19:06;;;;;;;0.70;0.10;;;25.40;99.90;;;;;;4935579;29;20448;-71
2022/07/14 03:21:35;;;;;;;0.70;0.10;;;25.30;99.90;;;;;;4924460;29;20480;-70
2022/07/14 03:24:03;;;;;;;0.70;0.20;;;25.20;99.90;;;;;;4917090;29;20450;-71
2022/07/14 03:26:31;;;;;;;0.70;0.10;;;25.20;99.90;;;;;;4916140;29;20453;-71
2022/07/14 03:28:59;;;;;;;0.70;0.10;;;;;;;;;;4930545;29;20503;-71
2022/07/14 03:31:27;;;;;;;0.70;0.10;;;25.20;99.90;;;;;;4934520;29;20498;-72
2022/07/14 03:33:55;;;;;;;0.70;0.20;;;25.10;99.90;;;;;;4935141;29;20443;-72
2022/07/14 03:36:23;;;;;;;0.70;0.10;;;25.10;99.90;;;;;;4935066;29;20485;-71
2022/07/14 03:38:53;;;;;;;0.70;0.10;;;25.10;99.90;;;;;;4935318;29;20444;-71
2022/07/14 03:41:21;;;;;;;0.70;0.10;;;;;;;;;;4934163;29;20456;-72
2022/07/14 03:43:49;;;;;;;0.70;0.20;;;25.00;99.90;;;;;;4935181;29;20830;-73
2022/07/14 03:46:17;;;;;;;0.70;0.20;;;;;;;;;;4934103;29;21030;-72
2022/07/14 03:48:45;;;;;;;0.70;0.10;;;25.00;99.90;;;;;;4934819;29;20533;-71
2022/07/14 03:51:13;;;;;;;0.70;0.20;;;;;;;;;;4922731;29;20946;-72
2022/07/14 03:53:41;;;;;;;0.70;0.20;;;25.00;99.90;;;;;;4916578;29;20972;-71
2022/07/14 03:56:10;;;;;;;0.70;0.17;;;25.00;99.90;;;;;;4915782;29;20445;-72
2022/07/14 03:58:38;;;;;;;0.93;0.83;;;24.80;99.90;;;;;;4915889;29;20445;-72
2022/07/14 04:01:06;;;;;;;0.70;0.20;;;24.80;99.90;;;;;;4926599;29;20463;-71
2022/07/14 04:03:34;;;;;;;0.70;0.10;;;24.80;99.90;;;;;;4934930;29;20841;-72
2022/07/14 04:06:02;;;;;;;0.70;0.20;;;24.70;99.90;;;;;;4935043;29;20459;-71
2022/07/14 04:08:30;;;;;;;0.70;0.10;;;;;;;;;;4926306;29;20481;-71
2022/07/14 04:10:58;;;;;;;0.70;0.20;;;24.60;99.90;;;;;;4915527;29;20460;-71
2022/07/14 04:13:29;;;;;;;0.70;0.13;;;24.60;99.90;;;;;;4915636;29;20488;-72
2022/07/14 04:15:57;;;;;;;0.70;0.10;;;24.50;99.90;;;;;;4915373;29;20453;-72
2022/07/14 04:18:24;;;;;;;0.70;0.10;;;24.50;99.90;;;;;;4927923;29;20454;-72
2022/07/14 04:20:54;;;;;;;0.70;0.20;;;24.40;99.90;;;;;;4934695;29;20522;-71
2022/07/14 04:23:22;;;;;;;0.70;0.10;;;24.40;99.90;;;;;;4934561;29;21021;-71
2022/07/14 04:25:51;;;;;;;0.70;0.10;;;24.50;99.90;;;;;;4934502;29;20463;-71
2022/07/14 04:28:19;;;;;;;0.70;0.10;;;24.50;99.90;;;;;;4930962;29;20479;-71
2022/07/14 04:30:48;;;;;;;0.70;0.10;;;24.50;99.90;;;;;;4934682;29;20542;-72
2022/07/14 04:33:20;;;;;;;0.70;0.10;;;24.50;99.90;;;;;;4934736;29;20493;-71
2022/07/14 04:35:48;;;;;;;0.70;0.10;;;24.50;99.90;;;;;;4931507;29;20835;-71
2022/07/14 04:38:16;;;;;;;0.70;0.10;;;;;;;;;;4933327;29;20459;-72
2022/07/14 04:40:48;;;;;;;0.70;0.10;;;24.50;99.90;;;;;;4934224;29;20947;-71
2022/07/14 04:43:16;;;;;;;0.70;0.20;;;24.50;99.90;;;;;;4930133;29;20943;-71
2022/07/14 04:45:45;;;;;;;0.70;0.10;;;24.50;99.90;;;;;;4933949;29;20456;-70
2022/07/14 04:48:15;;;;;;;0.70;0.23;;;24.50;99.90;;;;;;4933430;29;20518;-71
2022/07/14 04:53:28;;;;;;;0.70;0.20;;;24.40;99.90;;;;;;4934728;29;20507;-72
2022/07/14 04:55:57;;;;;;;0.70;0.10;;;24.40;99.90;;;;;;4934067;29;21103;-71
2022/07/14 04:58:25;;;;;;;0.70;0.20;;;24.40;99.90;;;;;;4933396;29;20463;-70
2022/07/14 05:00:58;;;;;;;0.70;0.17;;;24.50;99.90;;;;;;4934256;29;20452;-70
2022/07/14 05:03:28;;;;;;;0.80;0.20;;;24.50;99.90;;;;;;4934311;29;20480;-71
2022/07/14 05:05:55;;;;;;;0.70;0.10;;;24.50;99.90;;;;;;4934162;29;20452;-71
2022/07/14 05:08:23;;;;;;;0.70;0.37;;;24.50;99.90;;;;;;4919200;29;20460;-71
2022/07/14 05:10:51;;;;;;;0.70;0.10;;;24.50;99.90;;;;;;4920429;29;20466;-71
2022/07/14 05:13:19;;;;;;;0.70;0.20;;;24.50;99.90;;;;;;4933715;29;20482;-71
2022/07/14 05:15:47;;;;;;;0.70;0.20;;;24.50;99.90;;;;;;4933393;29;20447;-72
2022/07/14 05:18:14;;;;;;;0.70;0.20;;;24.50;99.90;;;;;;4931712;29;20468;-72
2022/07/14 05:20:44;;;;;;;0.70;0.10;;;24.50;99.90;;;;;;4933494;29;20444;-72
2022/07/14 05:23:12;;;;;;;0.70;0.17;;;24.50;99.90;;;;;;4933382;29;20979;-72
2022/07/14 05:25:40;;;;;;;0.70;0.10;;;24.50;99.90;;;;;;4933711;29;20452;-71
2022/07/14 05:28:07;;;;;;;0.70;0.13;;;24.50;99.90;;;;;;4934338;29;20467;-72
2022/07/14 05:30:36;;;;;;;0.70;0.20;;;24.50;99.90;;;;;;4937467;29;20483;-73
2022/07/14 05:33:04;;;;;;;0.70;0.20;;;24.40;99.90;;;;;;4932716;29;20610;-71
2022/07/14 05:35:31;;;;;;;0.70;0.20;;;24.30;99.90;;;;;;4928665;29;20464;-73
2022/07/14 05:38:01;;;;;;;0.70;0.20;;;24.30;99.90;;;;;;4935410;29;20456;-73
2022/07/14 05:40:36;;;;;;;0.70;0.10;;;24.30;99.90;;;;;;4921326;29;20503;-69
2022/07/14 05:43:04;;;;;;;0.70;0.20;;;24.30;99.90;;;;;;4932823;29;20507;-71
2022/07/14 05:45:32;;;;;;;0.80;0.50;;;24.40;99.90;;;;;;4932606;29;20447;-70
2022/07/14 05:48:00;;;;;;;0.70;0.10;;;;;;;;;;4927940;29;20460;-69
2022/07/14 05:50:28;;;;;;;0.70;0.20;;;24.40;99.90;;;;;;4936418;29;21017;-73
2022/07/14 05:52:56;;;;;;;0.70;0.10;;;;;;;;;;4936688;29;20476;-70
2022/07/14 05:55:26;;;;;;;1.10;0.80;;;24.30;99.90;;;;;;4934190;29;20488;-72
2022/07/14 05:57:54;;;;;;;0.70;0.20;;;24.30;99.90;;;;;;4919345;29;20455;-71
2022/07/14 06:00:22;;;;;;;0.70;0.10;;;24.30;99.90;;;;;;4918063;29;20936;-70
2022/07/14 06:02:50;;;;;;;1.33;1.20;;;24.20;99.90;;;;;;4931680;29;20463;-72
2022/07/14 06:05:25;;;;;;;0.70;0.20;;;24.30;99.90;;;;;;4943417;29;20460;-72
2022/07/14 06:07:53;;;;;;;0.70;0.20;;;24.30;99.90;;;;;;4944289;29;20964;-75
2022/07/14 06:10:22;;;;;;;0.70;0.20;;;24.10;99.90;;;;;;4947983;29;20479;-71
2022/07/14 06:12:51;;;;;;;0.70;0.13;;;24.00;99.90;;;;;;4956796;29;20483;-71
2022/07/14 06:15:19;;;;;;;0.70;0.20;;;;;;;;;;4949258;29;20472;-70
2022/07/14 06:17:47;;;;;;;0.70;0.20;;;;;;;;;;4935325;29;20452;-72
2022/07/14 06:20:15;;;;;;;0.70;0.10;;;24.00;99.90;;;;;;4935432;29;20459;-74
2022/07/14 06:22:43;;;;;;;0.70;0.20;;;;;;;;;;4942993;29;20480;-71
2022/07/14 06:25:11;;;;;;;0.70;0.10;;;23.90;99.90;;;;;;4937023;29;20444;-72
2022/07/14 06:27:39;;;;;;;0.70;0.13;;;23.90;99.90;;;;;;4921583;29;20925;-70
2022/07/14 06:30:10;;;;;;;0.70;0.20;;;24.00;99.90;;;;;;4936480;29;20523;-70
2022/07/14 06:32:40;;;;;;;0.70;0.10;;;24.00;99.90;;;;;;4936176;29;20471;-72
2022/07/14 06:35:09;;;;;;;0.70;0.20;;;24.00;99.90;;;;;;4935940;29;20459;-71
2022/07/14 06:37:37;;;;;;;0.70;0.20;;;24.10;99.90;;;;;;4934373;29;20458;-70
2022/07/14 06:40:08;;;;;;;0.70;0.20;;;24.30;99.90;;;;;;4932895;29;20947;-69
2022/07/14 06:42:36;;;;;;;0.70;0.10;;;24.40;99.90;;;;;;4935680;29;20554;-72
2022/07/14 06:45:04;;;;;;;0.70;0.10;;;24.50;99.90;;;;;;4935369;29;20467;-69
2022/07/14 06:47:33;;;;;;;0.70;0.10;;;24.50;99.90;;;;;;4935337;29;20447;-70
2022/07/14 06:50:01;;;;;;;0.70;0.20;;;24.70;99.90;;;;;;4935750;29;20487;-71
2022/07/14 06:52:29;;;;;;;0.70;0.17;;;24.80;99.90;;;;;;4935379;29;20910;-70
2022/07/14 06:54:59;;;;;;;0.70;0.10;;;24.80;99.90;;;;;;4934192;29;20460;-69
2022/07/14 06:57:27;;;;;;;0.70;0.10;;;24.80;99.90;;;;;;4931973;29;20982;-71
2022/07/14 06:59:55;;;;;;;0.70;0.10;;;24.80;99.90;;;;;;4943873;29;20472;-71
2022/07/14 07:02:23;;;;;;;0.70;0.20;;;24.90;99.90;;;;;;4942912;29;20803;-68
2022/07/14 07:07:34;;;;;;;0.70;0.10;;;;;;;;;;4935887;29;20448;-70
2022/07/14 07:10:02;;;;;;;0.70;0.10;;;24.90;99.90;;;;;;4935490;29;20488;-70
2022/07/14 07:12:30;;;;;;;0.70;0.20;;;24.90;99.90;;;;;;4932402;29;20966;-70
2022/07/14 07:14:58;;;;;;;0.70;0.10;;;24.90;99.90;;;;;;4933609;29;20474;-69
2022/07/14 07:17:26;;;;;;;0.70;0.10;;;24.90;99.90;;;;;;4934878;29;20466;-71
2022/07/14 07:19:55;;;;;;;0.70;0.20;;;25.00;99.90;;;;;;4935364;29;20448;-70
2022/07/14 07:22:23;;;;;;;0.70;0.10;;;25.00;99.90;;;;;;4935126;29;20475;-69
2022/07/14 07:24:50;;;;;;;0.70;0.20;;;25.10;99.90;;;;;;4930540;29;20452;-71
2022/07/14 07:27:18;;;;;;;0.70;0.10;;;25.00;99.90;;;;;;4934218;29;20456;-70
2022/07/14 07:29:47;;;;;;;0.70;0.10;;;;;;;;;;4935373;29;20822;-70
2022/07/14 07:32:15;;;;;;;0.70;0.20;;;24.90;99.90;;;;;;4935558;29;20468;-71
2022/07/14 07:34:43;;;;;;;0.70;0.10;;;24.90;99.90;;;;;;4934798;29;20455;-70
2022/07/14 07:37:12;;;;;;;0.70;0.10;;;24.90;99.90;;;;;;4934644;29;20443;-70
2022/07/14 07:39:54;;;;;;;0.70;0.20;;;24.90;99.90;;;;;;4933921;29;20973;-70
2022/07/14 07:42:22;;;;;;;0.70;0.10;;;24.90;99.90;;;;;;4934667;29;21007;-70
2022/07/14 07:44:50;;;;;;;0.70;0.10;;;;;;;;;;4934409;29;20990;-70
2022/07/14 07:47:18;;;;;;;0.70;0.20;;;25.00;99.90;;;;;;4934788;29;20742;-70
2022/07/14 07:49:46;;;;;;;0.70;0.10;;;;;;;;;;4929788;29;20940;-69
2022/07/14 07:52:15;;;;;;;0.70;0.10;;;25.00;99.90;;;;;;4915484;29;20461;-71
2022/07/14 07:54:44;;;;;;;0.70;0.10;;;25.00;99.90;;;;;;4929897;29;20439;-71
2022/07/14 07:57:32;;;;;;;0.80;0.20;;;25.00;99.90;;;;;;4917500;29;20437;-70
2022/07/14 08:00:00;;;;;;;0.70;0.10;;;25.00;99.90;;;;;;4934070;29;20455;-70
2022/07/14 08:02:28;;;;;;;0.70;0.33;;;25.00;99.90;;;;;;4934364;29;20807;-70
2022/07/14 08:04:56;;;;;;;1.07;0.40;;;25.00;99.90;;;;;;4933956;29;20463;-70
2022/07/14 08:07:25;;;;;;;0.70;0.10;;;25.00;99.90;;;;;;4934294;29;20451;-71
2022/07/14 08:09:53;;;;;;;0.70;0.20;;;25.10;99.90;;;;;;4933478;29;20460;-72
2022/07/14 08:12:26;;;;;;;0.70;0.20;;;25.10;99.90;;;;;;4914645;29;20536;-72
2022/07/14 08:14:54;;;;;;;0.70;0.13;;;25.20;99.90;;;;;;4922928;29;20468;-71
2022/07/14 08:17:23;;;;;;;0.70;0.20;;;25.20;99.90;;;;;;4932052;29;20444;-70
2022/07/14 08:19:51;;;;;;;0.70;0.20;;;25.20;99.90;;;;;;4924193;29;20460;-70
2022/07/14 08:22:25;;;;;;;0.70;0.20;;;25.30;99.90;;;;;;4934151;29;20479;-71
2022/07/14 08:24:53;;;;;;;0.70;0.20;;;25.30;99.90;;;;;;4934158;29;20448;-70
2022/07/14 08:27:22;;;;;;;0.70;0.10;;;25.40;99.90;;;;;;4939069;29;20451;-72
2022/07/14 08:29:50;;;;;;;0.73;0.27;;;25.50;99.90;;;;;;4933415;29;20544;-71
2022/07/14 08:32:18;;;;;;;0.70;0.20;;;25.50;99.90;;;;;;4934024;29;20986;-72
2022/07/14 08:34:46;;;;;;;0.70;0.10;;;;;;;;;;4933950;29;20863;-72
2022/07/14 08:37:14;;;;;;;0.70;0.20;;;25.50;99.90;;;;;;4940326;29;20958;-73
2022/07/14 08:39:44;;;;;;;0.70;0.20;;;25.50;99.90;;;;;;4950336;29;20455;-71
2022/07/14 08:42:12;;;;;;;0.70;0.20;;;25.50;99.90;;;;;;4951115;29;20471;-71
2022/07/14 08:44:40;;;;;;;0.80;0.50;;;;;;;;;;4914886;29;20475;-70
2022/07/14 08:47:09;;;;;;;0.70;0.10;;;25.50;99.90;;;;;;4915189;29;20460;-72
2022/07/14 08:49:37;;;;;;;0.70;0.20;;;25.60;99.90;;;;;;4914936;29;20559;-72
2022/07/14 08:52:25;;;;;;;0.70;0.10;;;25.60;99.90;;;;;;4914919;29;20484;-72
2022/07/14 08:54:55;;;;;;;0.70;0.10;;;25.80;99.90;;;;;;4916404;29;20453;-71
2022/07/14 08:57:23;;;;;;;0.70;0.20;;;25.80;99.90;;;;;;4915004;29;20487;-71
2022/07/14 08:59:51;;;;;;;0.70;0.20;;;25.90;99.90;;;;;;4915942;29;20449;-71
2022/07/14 09:02:19;;;;;;;0.70;0.10;;;25.90;99.90;;;;;;4916042;29;21014;-71
2022/07/14 09:04:47;;;;;;;0.70;0.17;;;26.00;99.90;;;;;;4925582;29;20547;-70
2022/07/14 09:07:31;;;;;;;0.70;0.20;;;26.10;99.90;;;;;;4949071;29;20495;-70
2022/07/14 09:10:08;;;;;;;0.70;0.10;;;26.30;99.90;;;;;;4957098;29;20539;-70
2022/07/14 09:12:36;;;;;;;0.70;0.20;;;26.40;99.90;;;;;;4940450;29;20483;-70
2022/07/14 09:17:53;;;;;;;0.70;0.10;;;26.50;99.90;;;;;;4936545;29;20439;-71
2022/07/14 09:20:22;;;;;;;0.70;0.20;;;26.60;99.90;;;;;;4929663;29;20444;-72
2022/07/14 09:22:55;;;;;;;0.70;0.20;;;26.60;99.90;;;;;;4936781;29;20487;-70
2022/07/14 09:25:27;;;;;;;0.70;0.10;;;26.70;99.90;;;;;;4934917;29;20469;-71
2022/07/14 09:27:55;;;;;;;0.70;0.10;;;26.70;99.90;;;;;;4943990;29;20435;-71
2022/07/14 09:30:25;;;;;;;0.70;0.10;;;26.80;99.90;;;;;;4947679;29;20477;-71
2022/07/14 09:32:56;;;;;;;0.70;0.20;;;26.80;99.90;;;;;;4938063;29;20491;-71
2022/07/14 09:35:26;;;;;;;0.70;0.20;;;26.90;99.90;;;;;;4936910;29;20444;-71
2022/07/14 09:37:55;;;;;;;0.70;0.10;;;26.90;99.90;;;;;;4936843;29;20452;-71
2022/07/14 09:40:28;;;;;;;0.93;0.50;;;27.00;99.90;;;;;;4937205;29;20573;-69
2022/07/14 09:43:03;;;;;;;0.70;0.20;;;27.00;99.90;;;;;;4935466;29;20994;-70
2022/07/14 09:45:33;;;;;;;0.70;0.10;;;26.90;99.90;;;;;;4936542;29;21026;-71
2022/07/14 09:48:04;;;;;;;0.70;0.10;;;27.00;99.90;;;;;;4936792;29;20543;-71
2022/07/14 09:50:34;;;;;;;0.70;0.17;;;27.00;99.90;;;;;;4936681;29;20443;-71
2022/07/14 09:53:12;;;;;;;0.70;0.20;;;27.10;99.90;;;;;;4935932;29;20498;-70
2022/07/14 09:55:44;;;;;;;0.70;0.10;;;27.10;99.90;;;;;;4937266;29;20447;-71
2022/07/14 09:58:12;;;;;;;0.70;0.10;;;27.20;99.90;;;;;;4936586;29;20459;-70
2022/07/14 10:00:42;;;;;;;1.80;0.60;;;27.40;99.90;;;;;;4936720;29;20458;-70
2022/07/14 10:03:10;;;;;;;0.70;0.10;;;27.50;99.90;;;;;;4936192;29;20468;-70
2022/07/14 10:05:39;;;;;;;0.70;0.10;;;27.60;99.90;;;;;;4936750;29;20451;-70
2022/07/14 10:08:08;;;;;;;0.93;0.83;;;27.70;99.90;;;;;;4936683;29;20455;-70
2022/07/14 10:10:37;;;;;;;0.90;0.50;;;;;;;;;;4936553;29;20459;-71
2022/07/14 10:13:06;;;;;;;0.70;0.10;;;27.70;99.90;;;;;;4932013;29;20495;-72
2022/07/14 10:15:39;;;;;;;0.70;0.20;;;27.80;99.90;;;;;;4935917;29;20937;-71
2022/07/14 10:18:08;;;;;;;3.23;0.93;;;27.80;99.90;;;;;;4936445;29;20549;-71
2022/07/14 10:20:37;;;;;;;0.70;0.20;;;28.00;99.90;;;;;;4936491;29;20464;-71
2022/07/14 10:23:06;;;;;;;0.70;0.10;;;28.00;99.90;;;;;;4940537;29;20466;-71
2022/07/14 10:25:34;;;;;;;0.70;0.10;;;28.00;99.90;;;;;;4935826;29;20452;-72
2022/07/14 10:28:02;;;;;;;0.70;0.20;;;28.00;99.90;;;;;;4935660;29;21006;-70
2022/07/14 10:30:37;;;;;;;1.63;0.70;;;28.00;99.90;;;;;;4935925;29;20455;-70
2022/07/14 10:33:10;;;;;;;0.70;0.20;;;28.00;99.90;;;;;;4935566;29;20497;-71
2022/07/14 10:35:51;;;;;;;0.70;0.10;;;28.00;99.90;;;;;;4935927;29;20452;-71
2022/07/14 10:38:35;;;;;;;0.70;0.20;;;27.90;99.90;;;;;;4935001;29;20931;-71
2022/07/14 10:41:09;;;;;;;0.70;0.20;;;28.00;99.90;;;;;;4946740;29;20439;-70
2022/07/14 10:43:51;;;;;;;0.70;0.20;;;28.00;99.90;;;;;;4935995;29;20565;-71
2022/07/14 10:46:37;;;;;;;0.70;0.20;;;28.00;99.90;;;;;;4935964;29;20451;-70
2022/07/14 10:49:08;;;;;;;0.70;0.13;;;28.10;99.90;;;;;;4944193;29;20502;-70
2022/07/14 10:51:45;;;;;;;0.80;0.40;;;28.50;99.90;;;;;;4935478;29;20495;-70
2022/07/14 10:54:15;;;;;;;0.70;0.10;;;28.50;99.90;;;;;;4931519;29;20470;-71
2022/07/14 10:57:11;;;;;;;1.00;0.33;;;28.70;99.90;;;;;;4933495;29;20568;-71
2022/07/14 10:59:40;;;;;;;0.70;0.30;;;28.90;99.90;;;;;;4935997;29;20969;-71
2022/07/14 11:02:31;;;;;;;0.90;0.30;;;29.00;99.90;;;;;;4935607;29;20495;-71
2022/07/14 11:05:12;;;;;;;0.80;0.20;;;29.00;99.90;;;;;;4935820;29;20456;-70
2022/07/14 11:07:50;;;;;;;0.70;0.10;;;28.90;99.90;;;;;;4938512;29;20945;-70
2022/07/14 11:11:08;;;;;;;0.70;0.20;;;28.80;99.90;;;;;;4947550;29;20446;-70
2022/07/14 11:14:09;;;;;;;1.47;1.17;;;28.70;99.90;;;;;;4951511;23;20498;-71
2022/07/14 11:16:57;;;;;;;0.70;0.20;;;28.70;99.90;;;;;;4932954;29;20454;-69
2022/07/14 11:19:31;;;;;;;0.70;0.10;;;28.70;99.90;;;;;;4929147;29;20448;-72
2022/07/14 11:22:19;;;;;;;0.70;0.10;;;28.70;99.90;;;;;;4947000;29;20523;-71
2022/07/14 11:24:54;;;;;;;0.70;0.20;;;28.80;99.90;;;;;;4919470;29;20465;-70
2022/07/14 11:27:48;;;;;;;1.00;0.87;;;28.90;99.90;;;;;;4916675;29;20496;-69
2022/07/14 11:30:30;;;;;;;0.70;0.20;;;28.80;99.90;;;;;;4918271;29;20539;-71
2022/07/14 11:33:09;;;;;;;0.70;0.20;;;28.40;99.90;;;;;;4916683;29;20571;-70
2022/07/14 11:38:46;;;;;;;0.70;0.10;;;28.40;99.90;;;;;;4917777;29;20445;-69
2022/07/14 11:41:14;;;;;;;0.70;0.20;;;28.40;99.90;;;;;;4917368;29;20835;-70
2022/07/14 11:43:48;;;;;;;0.70;0.10;;;28.40;99.90;;;;;;4915695;29;20469;-72
2022/07/14 11:46:25;;;;;;;0.70;0.10;;;28.00;99.90;;;;;;4916148;29;20504;-70
2022/07/14 11:48:55;;;;;;;0.70;0.20;;;28.50;99.90;;;;;;4917146;29;20455;-71
2022/07/14 11:51:27;;;;;;;0.70;0.10;;;28.70;99.90;;;;;;4914463;29;20483;-71
2022/07/14 11:53:57;;;;;;;0.70;0.10;;;28.70;99.90;;;;;;4913831;29;20519;-70
2022/07/14 11:56:27;;;;;;;0.70;0.17;;;28.80;99.90;;;;;;4916941;29;20548;-70
2022/07/14 11:58:59;;;;;;;0.90;0.47;;;28.80;99.90;;;;;;4916625;29;20449;-72
2022/07/14 12:01:32;;;;;;;0.70;0.30;;;28.80;99.90;;;;;;4915863;29;20449;-72
2022/07/14 12:04:08;;;;;;;0.70;0.20;;;28.50;99.90;;;;;;4915963;29;20461;-72
2022/07/14 12:06:40;;;;;;;0.70;0.20;;;28.60;99.90;;;;;;4914876;29;20452;-71
2022/07/14 12:09:09;;;;;;;0.70;0.20;;;28.60;99.90;;;;;;4915545;29;20461;-71
2022/07/14 12:12:00;;;;;;;0.70;0.20;;;28.60;99.90;;;;;;4915525;29;20456;-72
2022/07/14 12:14:28;;;;;;;0.70;0.10;;;28.70;99.90;;;;;;4915755;29;20487;-72
2022/07/14 12:16:56;;;;;;;0.70;0.10;;;28.80;99.90;;;;;;4915282;29;20816;-70
2022/07/14 12:19:28;;;;;;;0.70;0.10;;;29.00;99.90;;;;;;4915266;29;20452;-71
2022/07/14 12:22:01;;;;;;;0.70;0.20;;;29.10;99.90;;;;;;4915405;29;20459;-72
2022/07/14 12:24:30;;;;;;;0.70;0.10;;;29.40;99.90;;;;;;4915822;29;20476;-70
2022/07/14 12:26:58;;;;;;;0.70;0.10;;;29.40;99.90;;;;;;4915383;29;20457;-71
2022/07/14 12:29:26;;;;;;;0.70;0.20;;;29.40;99.90;;;;;;4902495;29;20451;-73
2022/07/14 12:31:54;;;;;;;0.70;0.27;;;29.40;99.90;;;;;;4915742;29;20900;-71
2022/07/14 12:34:23;;;;;;;0.70;0.10;;;29.40;99.90;;;;;;4915689;29;20548;-71
2022/07/14 12:36:51;;;;;;;0.90;0.53;;;29.40;99.90;;;;;;4915298;29;20540;-72
2022/07/14 12:39:21;;;;;;;0.70;0.20;;;29.30;99.90;;;;;;4915492;29;20456;-71
2022/07/14 12:41:49;;;;;;;0.80;0.30;;;29.40;99.90;;;;;;4915862;29;20464;-72
2022/07/14 12:44:17;;;;;;;0.70;0.10;;;29.50;99.90;;;;;;4916028;29;20468;-72
2022/07/14 12:46:45;;;;;;;0.80;0.40;;;29.50;99.90;;;;;;4915424;29;20463;-72
2022/07/14 12:49:15;;;;;;;0.73;0.20;;;29.40;99.90;;;;;;4916169;29;20540;-71
2022/07/14 12:51:44;;;;;;;0.70;0.20;;;29.40;99.90;;;;;;4916836;29;20453;-71
2022/07/14 12:54:15;;;;;;;0.70;0.10;;;29.30;99.90;;;;;;4914498;29;20492;-70
2022/07/14 12:57:02;;;;;;;0.70;0.17;;;29.30;99.90;;;;;;4915947;29;20995;-70
2022/07/14 12:59:32;;;;;;;0.77;0.30;;;29.20;99.90;;;;;;4915479;29;20449;-72
2022/07/14 13:02:02;;;;;;;0.70;0.20;;;29.10;99.90;;;;;;4915159;29;20459;-72
2022/07/14 13:04:33;;;;;;;0.70;0.20;;;29.00;99.90;;;;;;4915482;29;20469;-70
2022/07/14 13:07:13;;;;;;;0.70;0.20;;;28.90;99.90;;;;;;4915205;29;20993;-72
2022/07/14 13:09:41;;;;;;;0.70;0.10;;;28.90;99.90;;;;;;4915231;29;20963;-69
2022/07/14 13:12:29;;;;;;;0.80;0.47;;;28.70;99.90;;;;;;4914708;29;20476;-69
2022/07/14 13:14:58;;;;;;;0.80;0.30;;;28.50;99.90;;;;;;4918152;29;20478;-71
2022/07/14 13:17:57;;;;;;;0.90;0.33;;;28.40;99.90;;;;;;4913581;29;21023;-72
2022/07/14 13:20:52;;;;;;;0.70;0.20;;;28.20;99.90;;;;;;4914809;29;20818;-72
2022/07/14 13:23:26;;;;;;;0.70;0.20;;;28.00;99.90;;;;;;4902081;29;20465;-71
2022/07/14 13:25:57;;;;;;;0.70;0.20;;;28.00;99.90;;;;;;4916029;29;20531;-72